createdAt,value
2019-03-05T00:00:17.986Z,6.9
2019-03-05T00:05:25.516Z,6.9
2019-03-05T00:10:38.323Z,7
2019-03-05T00:15:05.101Z,7.1
2019-03-05T00:20:03.150Z,7.1
2019-03-05T00:25:10.789Z,7.1
2019-03-05T00:30:35.647Z,7.1
2019-03-05T00:35:05.097Z,7.2
2019-03-05T00:45:02.561Z,7.2
2019-03-05T00:50:10.055Z,7.2
2019-03-05T00:55:35.405Z,7.3
2019-03-05T01:00:04.879Z,7.2
2019-03-05T01:05:21.006Z,7.2
2019-03-05T01:10:13.005Z,7.1
2019-03-05T01:15:07.885Z,7
2019-03-05T01:20:02.931Z,7
2019-03-05T01:25:02.900Z,7
2019-03-05T01:30:10.494Z,6.9
2019-03-05T01:35:28.138Z,6.8
2019-03-05T01:45:07.703Z,6.7
2019-03-05T01:50:07.837Z,6.6
2019-03-05T01:55:02.688Z,6.6
2019-03-05T02:00:38.055Z,6.6
2019-03-05T02:05:03.002Z,6.5
2019-03-05T02:10:02.487Z,6.5
2019-03-05T02:15:04.965Z,6.3
2019-03-05T02:20:05.499Z,6.2
2019-03-05T02:25:07.971Z,6.2
2019-03-05T02:30:05.493Z,6.2
2019-03-05T02:35:05.408Z,6.2
2019-03-05T02:40:05.375Z,6.1
2019-03-05T02:45:02.818Z,6.1
2019-03-05T02:50:07.884Z,6.2
2019-03-05T02:55:05.510Z,6.3
2019-03-05T03:00:05.125Z,6.4
2019-03-05T03:05:12.821Z,6.4
2019-03-05T03:10:10.852Z,6.4
2019-03-05T03:15:05.841Z,6.5
2019-03-05T03:20:10.491Z,6.6
2019-03-05T03:30:28.124Z,6.4
2019-03-05T03:35:07.449Z,6.8
2019-03-05T03:40:25.712Z,6.9
2019-03-05T03:45:17.876Z,7
2019-03-05T03:50:15.563Z,7
2019-03-05T03:55:23.124Z,6.9
2019-03-05T04:00:25.933Z,6.8
2019-03-05T04:05:10.475Z,6.9
2019-03-05T04:10:05.631Z,6.9
2019-03-05T04:15:35.834Z,6.9
2019-03-05T04:20:03.133Z,6.9
2019-03-05T04:25:02.932Z,6.9
2019-03-05T04:30:15.641Z,6.9
2019-03-05T04:35:10.520Z,6.8
2019-03-05T04:40:05.474Z,6.8
2019-03-05T04:45:10.452Z,6.8
2019-03-05T04:50:09.980Z,6.8
2019-03-05T04:55:02.338Z,6.8
2019-03-05T05:00:13.422Z,6.8
2019-03-05T05:05:08.314Z,6.8
2019-03-05T05:10:20.459Z,6.7
2019-03-05T05:15:15.334Z,6.7
2019-03-05T05:20:07.462Z,6.7
2019-03-05T05:25:02.303Z,6.7
2019-03-05T05:35:03.142Z,6.7
2019-03-05T05:45:12.617Z,6.7
2019-03-05T05:50:10.112Z,6.6
2019-03-05T05:55:10.011Z,6.6
2019-03-05T06:00:15.652Z,6.6
2019-03-05T06:05:08.051Z,6.6
2019-03-05T06:10:10.017Z,6.6
2019-03-05T06:15:04.906Z,6.6
2019-03-05T06:20:20.601Z,6.6
2019-03-05T06:25:15.495Z,6.6
2019-03-05T06:30:07.554Z,6.6
2019-03-05T06:35:07.403Z,6.6
2019-03-05T06:40:02.812Z,6.6
2019-03-05T06:45:30.628Z,6.6
2019-03-05T06:50:17.730Z,6.7
2019-03-05T06:55:17.688Z,6.7
2019-03-05T07:00:02.663Z,6.7
2019-03-05T07:05:12.779Z,6.8
2019-03-05T07:10:08.320Z,6.8
2019-03-05T07:15:20.882Z,6.4
2019-03-05T07:20:05.375Z,6.8
2019-03-05T07:25:02.776Z,6.8
2019-03-05T07:30:22.997Z,7
2019-03-05T07:35:10.320Z,7
2019-03-05T07:40:02.767Z,7
2019-03-05T07:45:15.386Z,7.4
2019-03-05T07:50:02.341Z,7.4
2019-03-05T07:55:14.977Z,7.4
2019-03-05T08:00:23.152Z,7.3
2019-03-05T08:05:30.743Z,7.4
2019-03-05T08:10:20.585Z,7.6
2019-03-05T08:15:02.904Z,7.6
2019-03-05T08:20:10.508Z,7.6
2019-03-05T08:25:02.848Z,7.6
2019-03-05T08:30:14.013Z,7.7
2019-03-05T08:35:10.325Z,7.6
2019-03-05T08:45:15.374Z,7.6
2019-03-05T08:50:05.857Z,7.7
2019-03-05T08:55:17.455Z,7.6
2019-03-05T09:00:27.701Z,7.6
2019-03-05T09:05:07.613Z,7.6
2019-03-05T09:10:18.242Z,7.6
2019-03-05T09:15:03.002Z,7.6
2019-03-05T09:20:05.588Z,7.7
2019-03-05T09:25:02.968Z,7.7
2019-03-05T09:30:20.679Z,7.8
2019-03-05T09:35:02.937Z,7.8
2019-03-05T09:40:04.928Z,7.9
2019-03-05T09:45:04.873Z,8
2019-03-05T09:50:05.301Z,7.8
2019-03-05T09:55:27.986Z,7.8
2019-03-05T10:05:15.560Z,8
2019-03-05T10:10:03.009Z,8
2019-03-05T10:15:05.520Z,8.1
2019-03-05T10:20:10.112Z,8.2
2019-03-05T10:25:15.140Z,8.2
2019-03-05T10:30:30.935Z,8.4
2019-03-05T10:35:10.506Z,8.4
2019-03-05T10:40:05.452Z,8.8
2019-03-05T10:45:10.662Z,8.9
2019-03-05T10:50:25.424Z,8.8
2019-03-05T10:55:25.852Z,8.6
2019-03-05T11:00:07.700Z,8.6
2019-03-05T11:05:02.638Z,8.6
2019-03-05T11:10:08.144Z,8.7
2019-03-05T11:15:08.148Z,8.8
2019-03-05T11:20:10.170Z,8.9
2019-03-05T11:25:30.295Z,9
2019-03-05T11:30:13.467Z,9
2019-03-05T11:35:31.026Z,9.2
2019-03-05T11:40:05.069Z,9.2
2019-03-05T11:45:07.710Z,9.3
2019-03-05T11:50:07.647Z,9.3
2019-03-05T11:55:05.005Z,9.5
2019-03-05T12:00:05.409Z,9.6
2019-03-05T12:05:20.971Z,9.5
2019-03-05T12:10:07.590Z,9.2
2019-03-05T12:20:07.402Z,8.9
2019-03-05T12:25:07.954Z,8.6
2019-03-05T12:35:07.994Z,8.6
2019-03-05T12:40:02.417Z,8.6
2019-03-05T12:45:27.743Z,10
2019-03-05T12:50:05.414Z,10.1
2019-03-05T12:55:10.474Z,9.6
2019-03-05T13:00:05.070Z,9.3
2019-03-05T13:05:02.549Z,9.3
2019-03-05T13:15:13.059Z,9.2
2019-03-05T13:20:03.128Z,9.2
2019-03-05T13:30:15.764Z,10.6
2019-03-05T13:35:05.541Z,10
2019-03-05T13:40:30.089Z,9.3
2019-03-05T13:45:09.082Z,9
2019-03-05T13:50:11.252Z,8.1
2019-03-05T13:55:02.414Z,8.1
2019-03-05T14:00:07.197Z,6.8
2019-03-05T14:05:32.684Z,6.7
2019-03-05T14:10:13.391Z,6.9
2019-03-05T14:15:05.817Z,7.4
2019-03-05T14:20:38.353Z,7.9
2019-03-05T14:25:25.127Z,8.5
2019-03-05T14:30:08.355Z,9.4
2019-03-05T14:40:22.633Z,10.5
2019-03-05T14:45:02.991Z,11.1
2019-03-05T14:50:10.783Z,11.3
2019-03-05T14:55:05.812Z,9.7
2019-03-05T15:00:20.715Z,9
2019-03-05T15:05:03.139Z,8.9
2019-03-05T15:10:07.896Z,8.2
2019-03-05T15:15:30.861Z,8.1
2019-03-05T15:20:25.872Z,7.9
2019-03-05T15:25:05.545Z,7.9
2019-03-05T15:30:07.812Z,7.8
2019-03-05T15:35:08.023Z,7.6
2019-03-05T15:40:07.939Z,7.6
2019-03-05T15:45:08.190Z,7.9
2019-03-05T15:55:04.936Z,8.3
2019-03-05T16:00:02.996Z,8.3
2019-03-05T16:05:12.034Z,8.3
2019-03-05T16:15:05.079Z,8.1
2019-03-05T16:20:05.285Z,7.8
2019-03-05T16:25:13.721Z,7.7
2019-03-05T16:30:15.571Z,6.8
2019-03-05T16:35:10.888Z,5.3
2019-03-05T16:40:08.857Z,4.9
2019-03-05T16:45:03.280Z,4.8
2019-03-05T16:50:22.803Z,4.7
2019-03-05T16:55:37.909Z,4.7
2019-03-05T17:00:07.899Z,4.6
2019-03-05T17:05:35.669Z,4.6
2019-03-05T17:15:30.240Z,4.7
2019-03-05T17:20:05.929Z,4.7
2019-03-05T17:25:03.114Z,4.7
2019-03-05T17:30:20.064Z,4.7
2019-03-05T17:35:09.887Z,4.7
2019-03-05T17:40:08.404Z,4.7
2019-03-05T17:45:17.828Z,4.6
2019-03-05T17:50:35.679Z,4.6
2019-03-05T17:55:02.629Z,4.6
2019-03-05T18:00:05.181Z,4.6
2019-03-05T18:10:10.651Z,4.6
2019-03-05T18:15:23.322Z,4.6
2019-03-05T18:20:02.497Z,4.6
2019-03-05T18:25:03.049Z,4.6
2019-03-05T18:30:13.250Z,4.5
2019-03-05T18:35:05.206Z,4.5
2019-03-05T18:40:05.195Z,4.4
2019-03-05T18:45:35.517Z,4.4
2019-03-05T18:50:02.546Z,4.4
2019-03-05T18:55:12.623Z,4.4
2019-03-05T19:00:12.745Z,4.3
2019-03-05T19:05:20.611Z,4.3
2019-03-05T19:10:05.622Z,4.3
2019-03-05T19:15:03.085Z,4.3
2019-03-05T19:20:08.186Z,4.1
2019-03-05T19:25:20.206Z,4
2019-03-05T19:30:36.080Z,4
2019-03-05T19:35:18.198Z,4
2019-03-05T19:40:02.620Z,4
2019-03-05T19:45:33.372Z,4
2019-03-05T19:50:38.773Z,4
2019-03-05T19:55:07.835Z,3.9
2019-03-05T20:00:05.337Z,3.9
2019-03-05T20:05:15.438Z,4
2019-03-05T20:10:12.970Z,4.1
2019-03-05T20:15:08.022Z,4.1
2019-03-05T20:20:18.263Z,4.2
2019-03-05T20:25:10.187Z,4.2
2019-03-05T20:30:05.760Z,4.4
2019-03-05T20:35:30.962Z,4.4
2019-03-05T20:40:02.890Z,4.4
2019-03-05T20:50:04.925Z,4.3
2019-03-05T20:55:08.013Z,4.1
2019-03-05T21:00:10.640Z,4.1
2019-03-05T21:10:05.038Z,4.1
2019-03-05T21:15:05.139Z,4
2019-03-05T21:20:08.331Z,3.9
2019-03-05T21:25:03.258Z,3.9
2019-03-05T21:30:18.470Z,3.8
2019-03-05T21:35:05.154Z,3.7
2019-03-05T21:40:05.087Z,3.7
2019-03-05T21:45:04.013Z,3.7
2019-03-05T21:50:15.693Z,3.7
2019-03-05T21:55:15.071Z,3.7
2019-03-05T22:00:20.856Z,3.7
2019-03-05T22:10:17.799Z,3.6
2019-03-05T22:15:08.062Z,3.6
2019-03-05T22:20:23.307Z,3.6
2019-03-05T22:25:03.115Z,3.6
2019-03-05T22:30:18.068Z,3.6
2019-03-05T22:35:02.864Z,3.6
2019-03-05T22:40:27.979Z,3.6
2019-03-05T22:45:02.968Z,3.6
2019-03-05T22:50:23.429Z,3.6
2019-03-05T22:55:15.137Z,3.6
2019-03-05T23:00:03.076Z,3.6
2019-03-05T23:05:08.099Z,3.6
2019-03-05T23:10:02.510Z,3.6
2019-03-05T23:15:07.561Z,3.7
2019-03-05T23:20:05.252Z,3.7
2019-03-05T23:25:02.867Z,3.6
2019-03-05T23:30:02.818Z,3.7
2019-03-05T23:35:17.997Z,3.5
2019-03-05T23:40:05.370Z,3.6
2019-03-05T23:45:02.765Z,3.6
2019-03-05T23:50:10.364Z,3.6
2019-03-05T23:55:02.699Z,3.6
